sensor_id;sensor_type;location;lat;lon;timestamp;P1;durP1;ratioP1;P2;durP2;ratioP2
57341;SDS011;43175;51.002;18.316;2023-03-01T00:01:58;97.50;;;41.50;;
57341;SDS011;43175;51.002;18.316;2023-03-01T00:04:24;102.90;;;43.00;;
57341;SDS011;43175;51.002;18.316;2023-03-01T00:06:52;92.50;;;38.80;;
57341;SDS011;43175;51.002;18.316;2023-03-01T00:09:18;89.50;;;38.40;;
57341;SDS011;43175;51.002;18.316;2023-03-01T00:11:43;90.90;;;38.90;;
57341;SDS011;43175;51.002;18.316;2023-03-01T00:14:09;88.20;;;35.90;;
57341;SDS011;43175;51.002;18.316;2023-03-01T00:16:38;92.60;;;39.10;;
57341;SDS011;43175;51.002;18.316;2023-03-01T00:19:05;90.20;;;39.50;;
57341;SDS011;43175;51.002;18.316;2023-03-01T00:21:32;83.70;;;36.80;;
57341;SDS011;43175;51.002;18.316;2023-03-01T00:23:58;72.20;;;32.50;;
57341;SDS011;43175;51.002;18.316;2023-03-01T00:26:24;73.70;;;33.90;;
57341;SDS011;43175;51.002;18.316;2023-03-01T00:28:51;82.90;;;35.40;;
57341;SDS011;43175;51.002;18.316;2023-03-01T00:31:18;75.70;;;34.10;;
57341;SDS011;43175;51.002;18.316;2023-03-01T00:33:46;77.00;;;34.60;;
57341;SDS011;43175;51.002;18.316;2023-03-01T00:36:12;74.90;;;32.80;;
57341;SDS011;43175;51.002;18.316;2023-03-01T00:38:40;74.20;;;31.20;;
57341;SDS011;43175;51.002;18.316;2023-03-01T00:41:08;67.10;;;28.90;;
57341;SDS011;43175;51.002;18.316;2023-03-01T00:43:36;67.70;;;28.90;;
57341;SDS011;43175;51.002;18.316;2023-03-01T00:46:03;73.20;;;29.70;;
57341;SDS011;43175;51.002;18.316;2023-03-01T00:48:33;75.60;;;31.10;;
57341;SDS011;43175;51.002;18.316;2023-03-01T00:51:06;69.80;;;30.60;;
57341;SDS011;43175;51.002;18.316;2023-03-01T00:53:33;69.10;;;30.80;;
57341;SDS011;43175;51.002;18.316;2023-03-01T00:55:58;66.60;;;29.80;;
57341;SDS011;43175;51.002;18.316;2023-03-01T00:58:24;68.20;;;28.50;;
57341;SDS011;43175;51.002;18.316;2023-03-01T01:00:50;71.90;;;30.70;;
57341;SDS011;43175;51.002;18.316;2023-03-01T01:03:15;74.40;;;31.10;;
57341;SDS011;43175;51.002;18.316;2023-03-01T01:05:40;68.40;;;29.80;;
57341;SDS011;43175;51.002;18.316;2023-03-01T01:08:06;72.00;;;30.00;;
57341;SDS011;43175;51.002;18.316;2023-03-01T01:10:33;77.70;;;30.90;;
57341;SDS011;43175;51.002;18.316;2023-03-01T01:12:59;78.90;;;32.50;;
57341;SDS011;43175;51.002;18.316;2023-03-01T01:15:25;71.30;;;31.10;;
57341;SDS011;43175;51.002;18.316;2023-03-01T01:17:51;77.30;;;34.30;;
57341;SDS011;43175;51.002;18.316;2023-03-01T01:20:17;78.90;;;33.10;;
57341;SDS011;43175;51.002;18.316;2023-03-01T01:22:43;75.00;;;31.00;;
57341;SDS011;43175;51.002;18.316;2023-03-01T01:25:08;74.70;;;31.00;;
57341;SDS011;43175;51.002;18.316;2023-03-01T01:27:34;77.40;;;30.90;;
57341;SDS011;43175;51.002;18.316;2023-03-01T01:30:00;77.70;;;31.80;;
57341;SDS011;43175;51.002;18.316;2023-03-01T01:32:25;77.40;;;31.60;;
57341;SDS011;43175;51.002;18.316;2023-03-01T01:34:51;83.30;;;34.50;;
57341;SDS011;43175;51.002;18.316;2023-03-01T01:37:16;74.90;;;31.60;;
57341;SDS011;43175;51.002;18.316;2023-03-01T01:39:42;79.70;;;31.70;;
57341;SDS011;43175;51.002;18.316;2023-03-01T01:42:17;82.20;;;33.30;;
57341;SDS011;43175;51.002;18.316;2023-03-01T01:44:46;71.80;;;31.20;;
57341;SDS011;43175;51.002;18.316;2023-03-01T01:47:13;73.20;;;30.60;;
57341;SDS011;43175;51.002;18.316;2023-03-01T01:49:44;85.50;;;33.90;;
57341;SDS011;43175;51.002;18.316;2023-03-01T01:52:21;87.70;;;34.70;;
57341;SDS011;43175;51.002;18.316;2023-03-01T01:55:02;89.30;;;34.20;;
57341;SDS011;43175;51.002;18.316;2023-03-01T01:57:45;81.60;;;32.00;;
57341;SDS011;43175;51.002;18.316;2023-03-01T02:00:15;83.10;;;35.50;;
57341;SDS011;43175;51.002;18.316;2023-03-01T02:02:43;68.00;;;29.40;;
57341;SDS011;43175;51.002;18.316;2023-03-01T02:05:22;61.20;;;27.50;;
57341;SDS011;43175;51.002;18.316;2023-03-01T02:07:51;62.00;;;27.90;;
57341;SDS011;43175;51.002;18.316;2023-03-01T02:10:16;66.00;;;28.70;;
57341;SDS011;43175;51.002;18.316;2023-03-01T02:12:42;65.00;;;27.50;;
57341;SDS011;43175;51.002;18.316;2023-03-01T02:15:08;70.40;;;28.30;;
57341;SDS011;43175;51.002;18.316;2023-03-01T02:17:34;68.50;;;27.50;;
57341;SDS011;43175;51.002;18.316;2023-03-01T02:22:41;58.10;;;25.20;;
57341;SDS011;43175;51.002;18.316;2023-03-01T02:28:00;65.30;;;28.00;;
57341;SDS011;43175;51.002;18.316;2023-03-01T02:30:30;60.60;;;27.00;;
57341;SDS011;43175;51.002;18.316;2023-03-01T02:32:57;65.70;;;28.10;;
57341;SDS011;43175;51.002;18.316;2023-03-01T02:35:33;61.70;;;27.50;;
57341;SDS011;43175;51.002;18.316;2023-03-01T02:38:00;58.50;;;26.50;;
57341;SDS011;43175;51.002;18.316;2023-03-01T02:40:28;64.10;;;28.10;;
57341;SDS011;43175;51.002;18.316;2023-03-01T02:42:56;61.40;;;27.30;;
57341;SDS011;43175;51.002;18.316;2023-03-01T02:45:22;61.90;;;27.50;;
57341;SDS011;43175;51.002;18.316;2023-03-01T02:47:48;69.00;;;27.50;;
57341;SDS011;43175;51.002;18.316;2023-03-01T02:50:22;66.60;;;27.40;;
57341;SDS011;43175;51.002;18.316;2023-03-01T02:53:28;61.90;;;27.10;;
57341;SDS011;43175;51.002;18.316;2023-03-01T02:55:52;59.20;;;26.00;;
57341;SDS011;43175;51.002;18.316;2023-03-01T02:58:17;63.40;;;27.10;;
57341;SDS011;43175;51.002;18.316;2023-03-01T03:00:43;61.00;;;26.10;;
57341;SDS011;43175;51.002;18.316;2023-03-01T03:03:15;62.30;;;26.60;;
57341;SDS011;43175;51.002;18.316;2023-03-01T03:05:43;58.60;;;26.00;;
57341;SDS011;43175;51.002;18.316;2023-03-01T03:08:08;64.20;;;26.80;;
57341;SDS011;43175;51.002;18.316;2023-03-01T03:10:36;63.40;;;26.70;;
57341;SDS011;43175;51.002;18.316;2023-03-01T03:13:04;66.70;;;29.00;;
57341;SDS011;43175;51.002;18.316;2023-03-01T03:15:32;65.60;;;28.00;;
57341;SDS011;43175;51.002;18.316;2023-03-01T03:18:02;59.00;;;26.80;;
57341;SDS011;43175;51.002;18.316;2023-03-01T03:20:28;62.50;;;27.10;;
57341;SDS011;43175;51.002;18.316;2023-03-01T03:22:54;68.90;;;28.60;;
57341;SDS011;43175;51.002;18.316;2023-03-01T03:25:21;73.20;;;27.90;;
57341;SDS011;43175;51.002;18.316;2023-03-01T03:27:48;64.60;;;29.40;;
57341;SDS011;43175;51.002;18.316;2023-03-01T03:30:18;87.80;;;32.90;;
57341;SDS011;43175;51.002;18.316;2023-03-01T03:32:45;105.00;;;41.30;;
57341;SDS011;43175;51.002;18.316;2023-03-01T03:35:24;80.50;;;33.30;;
57341;SDS011;43175;51.002;18.316;2023-03-01T03:37:55;66.60;;;28.10;;
57341;SDS011;43175;51.002;18.316;2023-03-01T03:40:28;63.00;;;27.20;;
57341;SDS011;43175;51.002;18.316;2023-03-01T03:42:55;76.60;;;31.50;;
57341;SDS011;43175;51.002;18.316;2023-03-01T03:45:21;73.80;;;29.60;;
57341;SDS011;43175;51.002;18.316;2023-03-01T03:47:46;73.10;;;29.30;;
57341;SDS011;43175;51.002;18.316;2023-03-01T03:50:13;74.30;;;29.00;;
57341;SDS011;43175;51.002;18.316;2023-03-01T03:52:39;67.80;;;29.10;;
57341;SDS011;43175;51.002;18.316;2023-03-01T03:55:06;66.70;;;28.70;;
57341;SDS011;43175;51.002;18.316;2023-03-01T03:57:39;74.30;;;31.00;;
57341;SDS011;43175;51.002;18.316;2023-03-01T04:00:06;72.80;;;30.00;;
57341;SDS011;43175;51.002;18.316;2023-03-01T04:02:41;71.70;;;29.60;;
57341;SDS011;43175;51.002;18.316;2023-03-01T04:05:07;77.20;;;31.50;;
57341;SDS011;43175;51.002;18.316;2023-03-01T04:07:37;99.10;;;39.20;;
57341;SDS011;43175;51.002;18.316;2023-03-01T04:10:04;98.30;;;38.20;;
57341;SDS011;43175;51.002;18.316;2023-03-01T04:12:32;71.20;;;30.90;;
57341;SDS011;43175;51.002;18.316;2023-03-01T04:14:59;65.20;;;27.90;;
57341;SDS011;43175;51.002;18.316;2023-03-01T04:17:25;70.20;;;28.90;;
57341;SDS011;43175;51.002;18.316;2023-03-01T04:19:51;70.30;;;30.90;;
57341;SDS011;43175;51.002;18.316;2023-03-01T04:22:16;66.50;;;27.60;;
57341;SDS011;43175;51.002;18.316;2023-03-01T04:24:43;72.40;;;29.50;;
57341;SDS011;43175;51.002;18.316;2023-03-01T04:27:09;72.70;;;31.00;;
57341;SDS011;43175;51.002;18.316;2023-03-01T04:29:36;72.30;;;30.70;;
57341;SDS011;43175;51.002;18.316;2023-03-01T04:32:01;77.80;;;30.90;;
57341;SDS011;43175;51.002;18.316;2023-03-01T04:34:28;68.30;;;29.50;;
57341;SDS011;43175;51.002;18.316;2023-03-01T04:36:54;74.60;;;31.80;;
57341;SDS011;43175;51.002;18.316;2023-03-01T04:39:20;74.00;;;31.50;;
57341;SDS011;43175;51.002;18.316;2023-03-01T04:41:46;84.50;;;33.10;;
57341;SDS011;43175;51.002;18.316;2023-03-01T04:44:11;74.40;;;31.70;;
57341;SDS011;43175;51.002;18.316;2023-03-01T04:46:38;80.00;;;35.00;;
57341;SDS011;43175;51.002;18.316;2023-03-01T04:49:03;75.80;;;33.60;;
57341;SDS011;43175;51.002;18.316;2023-03-01T04:51:30;87.20;;;36.40;;
57341;SDS011;43175;51.002;18.316;2023-03-01T04:53:57;93.50;;;39.80;;
57341;SDS011;43175;51.002;18.316;2023-03-01T04:56:23;82.70;;;34.30;;
57341;SDS011;43175;51.002;18.316;2023-03-01T04:58:49;72.10;;;32.10;;
57341;SDS011;43175;51.002;18.316;2023-03-01T05:01:15;62.20;;;29.00;;
57341;SDS011;43175;51.002;18.316;2023-03-01T05:03:46;55.30;;;24.60;;
57341;SDS011;43175;51.002;18.316;2023-03-01T05:06:13;56.40;;;23.50;;
57341;SDS011;43175;51.002;18.316;2023-03-01T05:08:39;62.00;;;25.30;;
57341;SDS011;43175;51.002;18.316;2023-03-01T05:11:05;57.20;;;25.00;;
57341;SDS011;43175;51.002;18.316;2023-03-01T05:13:36;53.30;;;23.70;;
57341;SDS011;43175;51.002;18.316;2023-03-01T05:16:02;61.30;;;26.90;;
57341;SDS011;43175;51.002;18.316;2023-03-01T05:18:29;63.20;;;26.80;;
57341;SDS011;43175;51.002;18.316;2023-03-01T05:20:56;62.10;;;28.30;;
57341;SDS011;43175;51.002;18.316;2023-03-01T05:23:29;57.20;;;24.30;;
57341;SDS011;43175;51.002;18.316;2023-03-01T05:26:02;51.90;;;22.90;;
57341;SDS011;43175;51.002;18.316;2023-03-01T05:28:29;50.20;;;21.60;;
57341;SDS011;43175;51.002;18.316;2023-03-01T05:30:55;48.20;;;21.20;;
57341;SDS011;43175;51.002;18.316;2023-03-01T05:33:20;57.50;;;24.00;;
57341;SDS011;43175;51.002;18.316;2023-03-01T05:35:47;62.70;;;27.30;;
57341;SDS011;43175;51.002;18.316;2023-03-01T05:38:14;62.80;;;27.00;;
57341;SDS011;43175;51.002;18.316;2023-03-01T05:40:40;51.80;;;23.20;;
57341;SDS011;43175;51.002;18.316;2023-03-01T05:43:07;56.30;;;24.20;;
57341;SDS011;43175;51.002;18.316;2023-03-01T05:45:33;55.50;;;23.30;;
57341;SDS011;43175;51.002;18.316;2023-03-01T05:48:01;59.10;;;25.90;;
57341;SDS011;43175;51.002;18.316;2023-03-01T05:50:27;59.80;;;25.50;;
57341;SDS011;43175;51.002;18.316;2023-03-01T05:53:02;54.50;;;24.20;;
57341;SDS011;43175;51.002;18.316;2023-03-01T05:55:30;54.70;;;23.80;;
57341;SDS011;43175;51.002;18.316;2023-03-01T05:58:07;54.80;;;24.00;;
57341;SDS011;43175;51.002;18.316;2023-03-01T06:00:36;53.30;;;23.80;;
57341;SDS011;43175;51.002;18.316;2023-03-01T06:03:01;55.90;;;24.70;;
57341;SDS011;43175;51.002;18.316;2023-03-01T06:05:27;58.10;;;25.70;;
57341;SDS011;43175;51.002;18.316;2023-03-01T06:07:53;55.80;;;25.00;;
57341;SDS011;43175;51.002;18.316;2023-03-01T06:10:20;54.90;;;25.50;;
57341;SDS011;43175;51.002;18.316;2023-03-01T06:12:47;59.20;;;25.70;;
57341;SDS011;43175;51.002;18.316;2023-03-01T06:15:13;59.10;;;26.70;;
57341;SDS011;43175;51.002;18.316;2023-03-01T06:17:41;60.00;;;26.60;;
57341;SDS011;43175;51.002;18.316;2023-03-01T06:22:36;75.80;;;33.00;;
57341;SDS011;43175;51.002;18.316;2023-03-01T06:25:02;82.50;;;35.30;;
57341;SDS011;43175;51.002;18.316;2023-03-01T06:27:29;86.30;;;36.90;;
57341;SDS011;43175;51.002;18.316;2023-03-01T06:29:54;86.30;;;37.00;;
57341;SDS011;43175;51.002;18.316;2023-03-01T06:32:20;90.90;;;38.40;;
57341;SDS011;43175;51.002;18.316;2023-03-01T06:34:46;97.70;;;39.00;;
57341;SDS011;43175;51.002;18.316;2023-03-01T06:37:11;98.90;;;39.80;;
57341;SDS011;43175;51.002;18.316;2023-03-01T06:39:37;96.40;;;38.60;;
57341;SDS011;43175;51.002;18.316;2023-03-01T06:42:02;90.80;;;38.30;;
57341;SDS011;43175;51.002;18.316;2023-03-01T06:44:28;84.70;;;36.60;;
57341;SDS011;43175;51.002;18.316;2023-03-01T06:46:54;92.10;;;39.50;;
57341;SDS011;43175;51.002;18.316;2023-03-01T06:49:19;93.70;;;38.00;;
57341;SDS011;43175;51.002;18.316;2023-03-01T06:51:45;76.70;;;35.20;;
57341;SDS011;43175;51.002;18.316;2023-03-01T06:54:11;87.00;;;37.10;;
57341;SDS011;43175;51.002;18.316;2023-03-01T06:56:37;83.10;;;36.60;;
57341;SDS011;43175;51.002;18.316;2023-03-01T06:59:03;82.60;;;35.20;;
57341;SDS011;43175;51.002;18.316;2023-03-01T07:01:29;84.00;;;34.80;;
57341;SDS011;43175;51.002;18.316;2023-03-01T07:03:55;79.00;;;35.00;;
57341;SDS011;43175;51.002;18.316;2023-03-01T07:06:21;84.80;;;36.70;;
57341;SDS011;43175;51.002;18.316;2023-03-01T07:08:47;93.00;;;38.50;;
57341;SDS011;43175;51.002;18.316;2023-03-01T07:11:12;101.60;;;42.70;;
57341;SDS011;43175;51.002;18.316;2023-03-01T07:13:38;100.00;;;42.10;;
57341;SDS011;43175;51.002;18.316;2023-03-01T07:16:04;107.70;;;47.40;;
57341;SDS011;43175;51.002;18.316;2023-03-01T07:18:30;157.10;;;66.70;;
57341;SDS011;43175;51.002;18.316;2023-03-01T07:20:55;125.10;;;53.60;;
57341;SDS011;43175;51.002;18.316;2023-03-01T07:23:21;126.90;;;50.60;;
57341;SDS011;43175;51.002;18.316;2023-03-01T07:25:53;118.10;;;48.30;;
57341;SDS011;43175;51.002;18.316;2023-03-01T07:28:19;101.30;;;45.10;;
57341;SDS011;43175;51.002;18.316;2023-03-01T07:30:45;106.40;;;44.60;;
57341;SDS011;43175;51.002;18.316;2023-03-01T07:33:11;110.20;;;45.80;;
57341;SDS011;43175;51.002;18.316;2023-03-01T07:35:36;104.30;;;44.10;;
57341;SDS011;43175;51.002;18.316;2023-03-01T07:38:01;102.70;;;44.50;;
57341;SDS011;43175;51.002;18.316;2023-03-01T07:40:27;112.30;;;45.60;;
57341;SDS011;43175;51.002;18.316;2023-03-01T07:42:56;114.40;;;47.10;;
57341;SDS011;43175;51.002;18.316;2023-03-01T07:45:23;131.40;;;53.30;;
57341;SDS011;43175;51.002;18.316;2023-03-01T07:47:49;126.40;;;53.90;;
57341;SDS011;43175;51.002;18.316;2023-03-01T07:50:16;121.90;;;53.20;;
57341;SDS011;43175;51.002;18.316;2023-03-01T07:52:41;97.50;;;42.80;;
57341;SDS011;43175;51.002;18.316;2023-03-01T07:55:07;92.20;;;40.40;;
57341;SDS011;43175;51.002;18.316;2023-03-01T07:57:33;87.80;;;39.40;;
57341;SDS011;43175;51.002;18.316;2023-03-01T07:59:58;83.80;;;40.20;;
57341;SDS011;43175;51.002;18.316;2023-03-01T08:02:24;83.20;;;39.00;;
57341;SDS011;43175;51.002;18.316;2023-03-01T08:04:49;81.60;;;37.70;;
57341;SDS011;43175;51.002;18.316;2023-03-01T08:07:15;81.00;;;37.00;;
57341;SDS011;43175;51.002;18.316;2023-03-01T08:09:40;79.00;;;37.40;;
57341;SDS011;43175;51.002;18.316;2023-03-01T08:12:06;72.90;;;34.10;;
57341;SDS011;43175;51.002;18.316;2023-03-01T08:14:32;70.90;;;35.70;;
57341;SDS011;43175;51.002;18.316;2023-03-01T08:16:58;67.70;;;32.70;;
57341;SDS011;43175;51.002;18.316;2023-03-01T08:19:23;68.90;;;30.90;;
57341;SDS011;43175;51.002;18.316;2023-03-01T08:21:49;64.90;;;30.30;;
57341;SDS011;43175;51.002;18.316;2023-03-01T08:24:14;59.90;;;28.40;;
57341;SDS011;43175;51.002;18.316;2023-03-01T08:26:40;59.10;;;27.80;;
57341;SDS011;43175;51.002;18.316;2023-03-01T08:29:05;54.80;;;27.60;;
57341;SDS011;43175;51.002;18.316;2023-03-01T08:31:35;57.80;;;26.50;;
57341;SDS011;43175;51.002;18.316;2023-03-01T08:34:03;56.40;;;27.00;;
57341;SDS011;43175;51.002;18.316;2023-03-01T08:36:35;55.90;;;27.60;;
57341;SDS011;43175;51.002;18.316;2023-03-01T08:39:04;54.20;;;26.50;;
57341;SDS011;43175;51.002;18.316;2023-03-01T08:41:30;51.20;;;24.70;;
57341;SDS011;43175;51.002;18.316;2023-03-01T08:43:55;54.20;;;26.10;;
57341;SDS011;43175;51.002;18.316;2023-03-01T08:46:24;50.00;;;24.30;;
57341;SDS011;43175;51.002;18.316;2023-03-01T08:48:51;58.20;;;27.40;;
57341;SDS011;43175;51.002;18.316;2023-03-01T08:51:18;60.30;;;29.50;;
57341;SDS011;43175;51.002;18.316;2023-03-01T08:53:45;63.70;;;30.50;;
57341;SDS011;43175;51.002;18.316;2023-03-01T08:56:11;57.40;;;29.30;;
57341;SDS011;43175;51.002;18.316;2023-03-01T08:58:37;72.90;;;31.90;;
57341;SDS011;43175;51.002;18.316;2023-03-01T09:01:08;96.80;;;37.90;;
57341;SDS011;43175;51.002;18.316;2023-03-01T09:03:34;69.60;;;33.10;;
57341;SDS011;43175;51.002;18.316;2023-03-01T09:06:00;73.30;;;34.40;;
57341;SDS011;43175;51.002;18.316;2023-03-01T09:08:27;75.40;;;35.50;;
57341;SDS011;43175;51.002;18.316;2023-03-01T09:10:52;60.10;;;29.30;;
57341;SDS011;43175;51.002;18.316;2023-03-01T09:13:18;50.40;;;25.20;;
57341;SDS011;43175;51.002;18.316;2023-03-01T09:15:44;48.80;;;23.50;;
57341;SDS011;43175;51.002;18.316;2023-03-01T09:18:09;39.60;;;20.60;;
57341;SDS011;43175;51.002;18.316;2023-03-01T09:20:34;40.50;;;19.30;;
57341;SDS011;43175;51.002;18.316;2023-03-01T09:23:00;47.70;;;23.50;;
57341;SDS011;43175;51.002;18.316;2023-03-01T09:25:26;49.60;;;23.90;;
57341;SDS011;43175;51.002;18.316;2023-03-01T09:27:53;47.90;;;24.60;;
57341;SDS011;43175;51.002;18.316;2023-03-01T09:30:20;51.90;;;25.00;;
57341;SDS011;43175;51.002;18.316;2023-03-01T09:32:47;59.60;;;27.70;;
57341;SDS011;43175;51.002;18.316;2023-03-01T09:35:13;60.20;;;29.70;;
57341;SDS011;43175;51.002;18.316;2023-03-01T09:37:38;55.20;;;28.20;;
57341;SDS011;43175;51.002;18.316;2023-03-01T09:40:11;53.20;;;28.10;;
57341;SDS011;43175;51.002;18.316;2023-03-01T09:42:45;51.70;;;25.50;;
57341;SDS011;43175;51.002;18.316;2023-03-01T09:45:27;47.10;;;24.20;;
57341;SDS011;43175;51.002;18.316;2023-03-01T09:47:58;44.00;;;23.70;;
57341;SDS011;43175;51.002;18.316;2023-03-01T09:50:24;42.10;;;21.90;;
57341;SDS011;43175;51.002;18.316;2023-03-01T09:53:00;39.60;;;19.40;;
57341;SDS011;43175;51.002;18.316;2023-03-01T09:55:37;40.20;;;20.60;;
57341;SDS011;43175;51.002;18.316;2023-03-01T10:00:54;45.70;;;22.70;;
57341;SDS011;43175;51.002;18.316;2023-03-01T10:03:39;42.70;;;21.90;;
57341;SDS011;43175;51.002;18.316;2023-03-01T10:06:11;45.70;;;22.50;;
57341;SDS011;43175;51.002;18.316;2023-03-01T10:08:42;41.90;;;22.30;;
57341;SDS011;43175;51.002;18.316;2023-03-01T10:11:19;43.10;;;23.40;;
57341;SDS011;43175;51.002;18.316;2023-03-01T10:16:44;43.00;;;21.90;;
57341;SDS011;43175;51.002;18.316;2023-03-01T10:19:17;42.00;;;20.90;;
57341;SDS011;43175;51.002;18.316;2023-03-01T10:21:47;38.50;;;19.70;;
57341;SDS011;43175;51.002;18.316;2023-03-01T10:24:14;38.50;;;20.20;;
57341;SDS011;43175;51.002;18.316;2023-03-01T10:29:10;43.90;;;21.20;;
57341;SDS011;43175;51.002;18.316;2023-03-01T10:31:44;38.60;;;20.10;;
57341;SDS011;43175;51.002;18.316;2023-03-01T10:34:16;41.50;;;21.00;;
57341;SDS011;43175;51.002;18.316;2023-03-01T10:36:44;42.40;;;22.00;;
57341;SDS011;43175;51.002;18.316;2023-03-01T10:39:30;42.10;;;21.70;;
57341;SDS011;43175;51.002;18.316;2023-03-01T10:42:07;42.70;;;22.00;;
57341;SDS011;43175;51.002;18.316;2023-03-01T10:44:46;42.00;;;22.30;;
57341;SDS011;43175;51.002;18.316;2023-03-01T10:47:17;44.10;;;23.10;;
57341;SDS011;43175;51.002;18.316;2023-03-01T10:49:57;46.50;;;24.60;;
57341;SDS011;43175;51.002;18.316;2023-03-01T10:52:42;46.10;;;24.00;;
57341;SDS011;43175;51.002;18.316;2023-03-01T10:55:24;46.20;;;24.10;;
57341;SDS011;43175;51.002;18.316;2023-03-01T10:58:08;46.90;;;23.90;;
57341;SDS011;43175;51.002;18.316;2023-03-01T11:00:47;42.80;;;23.00;;
57341;SDS011;43175;51.002;18.316;2023-03-01T11:03:17;42.70;;;23.60;;
57341;SDS011;43175;51.002;18.316;2023-03-01T11:08:32;49.20;;;23.90;;
57341;SDS011;43175;51.002;18.316;2023-03-01T11:13:35;46.50;;;24.50;;
57341;SDS011;43175;51.002;18.316;2023-03-01T11:16:06;46.90;;;24.40;;
57341;SDS011;43175;51.002;18.316;2023-03-01T11:18:35;45.90;;;23.60;;
57341;SDS011;43175;51.002;18.316;2023-03-01T11:21:01;47.20;;;25.70;;
57341;SDS011;43175;51.002;18.316;2023-03-01T11:23:28;47.30;;;24.50;;
57341;SDS011;43175;51.002;18.316;2023-03-01T11:25:55;45.50;;;24.10;;
57341;SDS011;43175;51.002;18.316;2023-03-01T11:28:22;46.10;;;24.20;;
57341;SDS011;43175;51.002;18.316;2023-03-01T11:35:58;45.80;;;23.60;;
57341;SDS011;43175;51.002;18.316;2023-03-01T11:38:27;43.10;;;23.00;;
57341;SDS011;43175;51.002;18.316;2023-03-01T11:43:32;45.10;;;22.50;;
57341;SDS011;43175;51.002;18.316;2023-03-01T11:54:19;42.10;;;23.00;;
57341;SDS011;43175;51.002;18.316;2023-03-01T12:02:21;44.40;;;23.70;;
57341;SDS011;43175;51.002;18.316;2023-03-01T12:08:12;47.60;;;26.80;;
57341;SDS011;43175;51.002;18.316;2023-03-01T12:16:23;49.60;;;25.70;;
57341;SDS011;43175;51.002;18.316;2023-03-01T12:32:49;39.70;;;20.70;;
57341;SDS011;43175;51.002;18.316;2023-03-01T12:35:23;42.50;;;22.80;;
57341;SDS011;43175;51.002;18.316;2023-03-01T12:43:21;42.90;;;22.70;;
57341;SDS011;43175;51.002;18.316;2023-03-01T12:46:06;43.50;;;23.30;;
57341;SDS011;43175;51.002;18.316;2023-03-01T12:51:09;42.10;;;23.30;;
57341;SDS011;43175;51.002;18.316;2023-03-01T12:53:44;43.50;;;22.60;;
57341;SDS011;43175;51.002;18.316;2023-03-01T12:56:13;42.40;;;22.10;;
57341;SDS011;43175;51.002;18.316;2023-03-01T12:58:47;39.40;;;21.10;;
57341;SDS011;43175;51.002;18.316;2023-03-01T13:01:39;43.80;;;22.40;;
57341;SDS011;43175;51.002;18.316;2023-03-01T13:04:25;43.20;;;23.90;;
57341;SDS011;43175;51.002;18.316;2023-03-01T13:12:49;33.70;;;17.50;;
57341;SDS011;43175;51.002;18.316;2023-03-01T13:15:27;32.30;;;16.80;;
57341;SDS011;43175;51.002;18.316;2023-03-01T13:17:54;30.10;;;17.00;;
57341;SDS011;43175;51.002;18.316;2023-03-01T13:41:52;33.40;;;18.10;;
57341;SDS011;43175;51.002;18.316;2023-03-01T13:46:52;33.20;;;16.90;;
57341;SDS011;43175;51.002;18.316;2023-03-01T13:49:20;36.40;;;18.70;;
57341;SDS011;43175;51.002;18.316;2023-03-01T13:51:47;28.80;;;15.90;;
57341;SDS011;43175;51.002;18.316;2023-03-01T13:54:14;27.90;;;14.80;;
57341;SDS011;43175;51.002;18.316;2023-03-01T13:56:41;29.50;;;15.50;;
57341;SDS011;43175;51.002;18.316;2023-03-01T13:59:17;27.60;;;14.60;;
57341;SDS011;43175;51.002;18.316;2023-03-01T14:01:44;30.90;;;16.20;;
57341;SDS011;43175;51.002;18.316;2023-03-01T14:04:27;29.40;;;15.00;;
57341;SDS011;43175;51.002;18.316;2023-03-01T14:09:45;32.20;;;16.10;;
57341;SDS011;43175;51.002;18.316;2023-03-01T14:19:59;32.10;;;16.50;;
57341;SDS011;43175;51.002;18.316;2023-03-01T14:22:35;33.50;;;17.70;;
57341;SDS011;43175;51.002;18.316;2023-03-01T14:25:03;28.80;;;14.90;;
57341;SDS011;43175;51.002;18.316;2023-03-01T14:27:34;33.70;;;16.50;;
57341;SDS011;43175;51.002;18.316;2023-03-01T14:30:03;29.50;;;16.00;;
57341;SDS011;43175;51.002;18.316;2023-03-01T14:32:35;28.90;;;16.00;;
57341;SDS011;43175;51.002;18.316;2023-03-01T14:35:01;31.90;;;16.60;;
57341;SDS011;43175;51.002;18.316;2023-03-01T14:39:54;31.50;;;16.30;;
57341;SDS011;43175;51.002;18.316;2023-03-01T14:42:21;31.80;;;16.20;;
57341;SDS011;43175;51.002;18.316;2023-03-01T14:44:49;32.00;;;16.50;;
57341;SDS011;43175;51.002;18.316;2023-03-01T14:47:22;31.20;;;16.30;;
57341;SDS011;43175;51.002;18.316;2023-03-01T14:49:55;30.70;;;16.10;;
57341;SDS011;43175;51.002;18.316;2023-03-01T14:52:37;30.30;;;15.80;;
57341;SDS011;43175;51.002;18.316;2023-03-01T14:55:13;30.00;;;15.30;;
57341;SDS011;43175;51.002;18.316;2023-03-01T14:57:50;30.50;;;15.80;;
57341;SDS011;43175;51.002;18.316;2023-03-01T15:00:23;31.70;;;16.10;;
57341;SDS011;43175;51.002;18.316;2023-03-01T15:02:51;29.80;;;14.90;;
57341;SDS011;43175;51.002;18.316;2023-03-01T15:05:21;29.10;;;14.70;;
57341;SDS011;43175;51.002;18.316;2023-03-01T15:07:58;28.50;;;14.70;;
57341;SDS011;43175;51.002;18.316;2023-03-01T15:10:26;29.00;;;15.10;;
57341;SDS011;43175;51.002;18.316;2023-03-01T15:12:53;30.10;;;15.10;;
57341;SDS011;43175;51.002;18.316;2023-03-01T15:17:55;27.00;;;12.80;;
57341;SDS011;43175;51.002;18.316;2023-03-01T15:20:23;27.40;;;13.10;;
57341;SDS011;43175;51.002;18.316;2023-03-01T15:22:51;27.20;;;13.30;;
57341;SDS011;43175;51.002;18.316;2023-03-01T15:25:18;27.80;;;12.90;;
57341;SDS011;43175;51.002;18.316;2023-03-01T15:27:46;27.30;;;12.90;;
57341;SDS011;43175;51.002;18.316;2023-03-01T15:30:18;25.40;;;12.40;;
57341;SDS011;43175;51.002;18.316;2023-03-01T15:32:47;22.60;;;10.90;;
57341;SDS011;43175;51.002;18.316;2023-03-01T15:38:22;29.60;;;14.10;;
57341;SDS011;43175;51.002;18.316;2023-03-01T15:40:52;27.30;;;13.20;;
57341;SDS011;43175;51.002;18.316;2023-03-01T15:46:14;25.60;;;12.80;;
57341;SDS011;43175;51.002;18.316;2023-03-01T15:48:48;26.80;;;13.60;;
57341;SDS011;43175;51.002;18.316;2023-03-01T15:51:18;26.90;;;13.70;;
57341;SDS011;43175;51.002;18.316;2023-03-01T15:53:51;26.50;;;13.90;;
57341;SDS011;43175;51.002;18.316;2023-03-01T15:56:18;29.30;;;14.20;;
57341;SDS011;43175;51.002;18.316;2023-03-01T15:58:44;29.30;;;14.60;;
57341;SDS011;43175;51.002;18.316;2023-03-01T16:01:11;32.40;;;14.90;;
57341;SDS011;43175;51.002;18.316;2023-03-01T16:03:38;28.50;;;15.10;;
57341;SDS011;43175;51.002;18.316;2023-03-01T16:06:04;29.60;;;14.80;;
57341;SDS011;43175;51.002;18.316;2023-03-01T16:08:29;30.60;;;15.30;;
57341;SDS011;43175;51.002;18.316;2023-03-01T16:10:55;34.00;;;16.00;;
57341;SDS011;43175;51.002;18.316;2023-03-01T16:13:21;30.10;;;15.20;;
57341;SDS011;43175;51.002;18.316;2023-03-01T16:15:47;42.50;;;24.00;;
57341;SDS011;43175;51.002;18.316;2023-03-01T16:18:12;38.80;;;20.80;;
57341;SDS011;43175;51.002;18.316;2023-03-01T16:20:37;43.60;;;25.30;;
57341;SDS011;43175;51.002;18.316;2023-03-01T16:23:04;42.90;;;22.40;;